Skip Navigation Links Skip Navigation Links

Current Weather

Indira Gandhi Intl Apt, New Delhi, India

For information only: do not use for flight planning or navigation.
Latest weather
Observation time Wednesday, October 27, 2021 11:30 AM IST
Local time Wednesday, October 27, 2021 12:07 PM IST
Flight conditions Instrument Meteorological Conditions
Winds
Wind direction West-Northwest (290°)
Wind speed 8 mph
Visibility 1.1 mi.
Present weather haze
Sky condition
Ceiling unlimited
Temperature 75°F
Dewpoint 61°F
Altimeter 30.06 in.Hg
Derived measurements
Relative humidity 61%
Density altitude 1900 ft.
Remarks
No significant changes expected in the next two hours.
METAR VIDP 270600Z 29007KT 1800 R28/P2000 R29/P2000 HZ NSC 24/16 Q1018 NOSIG

Settings

Location code

InnerDrive.Weather 4.0.6770.0 Release CLR 4.0.30319.42000
Copyright ©2018 Inner Drive Technology. All rights reserved. Portions Copyright ©1986-2018 David Braverman.

Find weather

Site navigation


Skip Navigation Links

Place info

Page info

PayPal - The safer, easier way to pay online!

Return home.

Copyright ©2021 Inner Drive Technology. Purveyors of fine, hand-crafted computer software. Page printed 2021-10-27T06:37:35 UTC.